createdAt,value
2022-12-20T00:00:03.558Z,91.20
2022-12-20T00:00:12.980Z,91.20
2022-12-20T00:00:22.405Z,91.10
2022-12-20T00:00:31.845Z,91.10
2022-12-20T00:00:41.352Z,91.10
2022-12-20T00:00:50.772Z,91.10
2022-12-20T00:01:00.177Z,91.10
2022-12-20T00:01:09.638Z,91.00
2022-12-20T00:01:19.131Z,91.00
2022-12-20T00:01:28.556Z,91.00
2022-12-20T00:01:38.087Z,91.10
2022-12-20T00:01:47.403Z,91.10
2022-12-20T00:01:56.844Z,91.10
2022-12-20T00:02:06.336Z,91.10
2022-12-20T00:02:25.045Z,91.00
2022-12-20T00:02:34.492Z,91.10
2022-12-20T00:02:43.794Z,91.10
2022-12-20T00:02:53.139Z,91.20
2022-12-20T00:03:02.648Z,91.20
2022-12-20T00:03:11.985Z,91.20
2022-12-20T00:03:21.459Z,91.20
2022-12-20T00:03:30.876Z,91.10
2022-12-20T00:03:40.258Z,91.00
2022-12-20T00:03:49.653Z,91.00
2022-12-20T00:03:59.066Z,91.00
2022-12-20T00:04:08.489Z,91.00
2022-12-20T00:04:17.881Z,91.00
2022-12-20T00:04:27.284Z,91.00
2022-12-20T00:04:36.718Z,91.00
2022-12-20T00:04:46.145Z,91.00
2022-12-20T00:05:04.983Z,91.10
2022-12-20T00:05:14.687Z,91.10
2022-12-20T00:05:24.118Z,91.10
2022-12-20T00:05:33.523Z,91.10
2022-12-20T00:05:42.913Z,91.10
2022-12-20T00:05:52.323Z,91.00
2022-12-20T00:06:01.768Z,91.00
2022-12-20T00:06:11.168Z,91.10
2022-12-20T00:06:20.651Z,91.10
2022-12-20T00:06:30.141Z,91.10
2022-12-20T00:06:39.498Z,91.20
2022-12-20T00:06:48.925Z,91.10
2022-12-20T00:06:58.330Z,91.20
2022-12-20T00:07:07.744Z,91.30
2022-12-20T00:07:17.171Z,91.30
2022-12-20T00:07:26.561Z,91.30
2022-12-20T00:07:35.971Z,91.30
2022-12-20T00:07:46.130Z,91.30
2022-12-20T00:08:04.965Z,91.50
2022-12-20T00:08:14.417Z,91.50
2022-12-20T00:08:23.844Z,91.50
2022-12-20T00:08:33.239Z,91.40
2022-12-20T00:08:42.638Z,91.50
2022-12-20T00:08:52.054Z,91.40
2022-12-20T00:09:01.539Z,91.40
2022-12-20T00:09:10.909Z,91.40
2022-12-20T00:09:20.323Z,91.40
2022-12-20T00:09:29.777Z,91.30
2022-12-20T00:09:39.211Z,91.40
2022-12-20T00:09:48.604Z,91.40
2022-12-20T00:09:58.146Z,91.30
2022-12-20T00:10:07.557Z,91.30
2022-12-20T00:10:16.940Z,91.40
2022-12-20T00:10:26.354Z,91.40
2022-12-20T00:10:35.776Z,91.30
2022-12-20T00:10:54.612Z,91.20
2022-12-20T00:11:04.007Z,91.20
2022-12-20T00:11:13.420Z,91.10
2022-12-20T00:11:22.829Z,91.10
2022-12-20T00:11:32.353Z,91.10
2022-12-20T00:11:41.730Z,91.20
2022-12-20T00:11:51.124Z,91.20
2022-12-20T00:12:00.542Z,91.20
2022-12-20T00:12:09.937Z,91.20
2022-12-20T00:12:19.395Z,91.20
2022-12-20T00:12:28.851Z,91.20
2022-12-20T00:12:38.243Z,91.20
2022-12-20T00:12:47.709Z,91.10
2022-12-20T00:12:57.087Z,91.20
2022-12-20T00:13:06.576Z,91.10
2022-12-20T00:13:15.991Z,91.00
2022-12-20T00:13:34.791Z,91.00
2022-12-20T00:13:44.204Z,91.00
2022-12-20T00:13:53.636Z,91.00
2022-12-20T00:14:03.034Z,91.00
2022-12-20T00:14:12.429Z,90.90
2022-12-20T00:14:21.857Z,90.90
2022-12-20T00:14:31.408Z,90.90
2022-12-20T00:14:40.826Z,90.90
2022-12-20T00:14:50.235Z,91.00
2022-12-20T00:14:59.623Z,91.00
2022-12-20T00:15:09.035Z,91.00
2022-12-20T00:15:18.445Z,91.00
2022-12-20T00:15:27.842Z,90.90
2022-12-20T00:15:37.391Z,90.80
2022-12-20T00:15:46.882Z,90.80
2022-12-20T00:15:56.333Z,90.80
2022-12-20T00:16:05.753Z,90.80
2022-12-20T00:16:24.577Z,90.60
2022-12-20T00:16:34.015Z,90.60
2022-12-20T00:16:43.459Z,90.60
2022-12-20T00:16:52.820Z,90.60
2022-12-20T00:17:03.322Z,90.60
2022-12-20T00:17:12.774Z,90.50
2022-12-20T00:17:22.230Z,90.40
2022-12-20T00:17:31.701Z,90.40
2022-12-20T00:17:41.124Z,90.40
2022-12-20T00:17:50.532Z,90.40
2022-12-20T00:18:00.038Z,90.30
2022-12-20T00:18:09.451Z,90.40
2022-12-20T00:18:18.865Z,90.30
2022-12-20T00:18:28.163Z,90.30
2022-12-20T00:18:37.597Z,90.20
2022-12-20T00:18:46.987Z,90.20
2022-12-20T00:18:56.386Z,90.20
2022-12-20T00:19:05.800Z,90.20
2022-12-20T00:19:24.653Z,90.20
2022-12-20T00:19:34.057Z,90.20
2022-12-20T00:19:43.468Z,90.10
2022-12-20T00:19:52.887Z,90.10
2022-12-20T00:20:02.314Z,90.00
2022-12-20T00:20:11.795Z,90.10
2022-12-20T00:20:21.105Z,90.10
2022-12-20T00:20:30.558Z,90.10
2022-12-20T00:20:39.948Z,90.10
2022-12-20T00:20:49.369Z,90.10
2022-12-20T00:20:58.814Z,90.20
2022-12-20T00:21:08.242Z,90.10
2022-12-20T00:21:17.677Z,90.10
2022-12-20T00:21:27.082Z,90.10
2022-12-20T00:21:36.572Z,90.00
2022-12-20T00:21:45.921Z,90.00
2022-12-20T00:22:04.754Z,90.10
2022-12-20T00:22:14.165Z,90.10
2022-12-20T00:22:23.591Z,90.10
2022-12-20T00:22:32.981Z,90.10
2022-12-20T00:22:42.377Z,90.10
2022-12-20T00:22:51.786Z,90.10
2022-12-20T00:23:01.186Z,90.10
2022-12-20T00:23:10.611Z,90.20
2022-12-20T00:23:20.052Z,90.20
2022-12-20T00:23:29.438Z,90.20
2022-12-20T00:23:38.838Z,90.20
2022-12-20T00:23:48.272Z,90.20
2022-12-20T00:23:57.666Z,90.30
2022-12-20T00:24:07.080Z,90.40
2022-12-20T00:24:22.220Z,90.30
2022-12-20T00:24:26.646Z,90.30
2022-12-20T00:24:44.753Z,90.40
2022-12-20T00:24:54.225Z,90.40
2022-12-20T00:25:03.654Z,90.40
2022-12-20T00:25:13.033Z,90.40
2022-12-20T00:25:22.439Z,90.30
2022-12-20T00:25:31.856Z,90.30
2022-12-20T00:25:41.258Z,90.40
2022-12-20T00:25:50.670Z,90.30
2022-12-20T00:26:00.134Z,90.30
2022-12-20T00:26:09.729Z,90.40
2022-12-20T00:26:19.150Z,90.40
2022-12-20T00:26:28.577Z,90.30
2022-12-20T00:26:38.021Z,90.20
2022-12-20T00:26:47.412Z,90.10
2022-12-20T00:26:56.830Z,90.20
2022-12-20T00:27:06.228Z,90.20
2022-12-20T00:27:25.052Z,90.20
2022-12-20T00:27:34.468Z,90.20
2022-12-20T00:27:43.883Z,90.20
2022-12-20T00:27:53.266Z,90.20
2022-12-20T00:28:02.639Z,90.20
2022-12-20T00:28:12.050Z,90.10
2022-12-20T00:28:21.494Z,90.00
2022-12-20T00:28:30.909Z,90.00
2022-12-20T00:28:40.338Z,89.80
2022-12-20T00:28:49.880Z,89.80
2022-12-20T00:28:59.280Z,89.70
2022-12-20T00:29:08.680Z,89.70
2022-12-20T00:29:18.087Z,89.80
2022-12-20T00:29:27.503Z,89.70
2022-12-20T00:29:36.897Z,89.70
2022-12-20T00:29:46.296Z,89.80
2022-12-20T00:30:05.090Z,89.90
2022-12-20T00:30:14.521Z,89.90
2022-12-20T00:30:23.984Z,89.80
2022-12-20T00:30:33.389Z,89.70
2022-12-20T00:30:42.804Z,89.70
2022-12-20T00:30:52.196Z,89.70
2022-12-20T00:31:01.680Z,89.80
2022-12-20T00:31:11.217Z,89.60
2022-12-20T00:31:20.563Z,89.60
2022-12-20T00:31:29.924Z,89.60
2022-12-20T00:31:39.329Z,89.70
2022-12-20T00:31:48.791Z,89.70
2022-12-20T00:31:58.184Z,89.80
2022-12-20T00:32:07.698Z,89.80
2022-12-20T00:32:16.997Z,90.00
2022-12-20T00:32:26.412Z,90.00
2022-12-20T00:32:35.879Z,90.10
2022-12-20T00:32:54.701Z,90.20
2022-12-20T00:33:04.102Z,90.30
2022-12-20T00:33:13.512Z,90.30
2022-12-20T00:33:22.910Z,90.30
2022-12-20T00:33:32.305Z,90.30
2022-12-20T00:33:41.713Z,90.20
2022-12-20T00:33:51.119Z,90.20
2022-12-20T00:34:00.555Z,90.20
2022-12-20T00:34:09.926Z,90.20
2022-12-20T00:34:19.336Z,90.20
2022-12-20T00:34:28.734Z,90.20
2022-12-20T00:34:38.143Z,90.20
2022-12-20T00:34:47.541Z,90.10
2022-12-20T00:34:56.955Z,90.10
2022-12-20T00:35:06.373Z,90.10
2022-12-20T00:35:15.763Z,90.10
2022-12-20T00:35:34.593Z,90.10
2022-12-20T00:35:43.985Z,90.00
2022-12-20T00:35:53.391Z,90.00
2022-12-20T00:36:02.777Z,89.90
2022-12-20T00:36:12.223Z,89.90
2022-12-20T00:36:21.639Z,89.70
2022-12-20T00:36:31.057Z,89.50
2022-12-20T00:36:40.545Z,89.50
2022-12-20T00:36:49.951Z,89.40
2022-12-20T00:36:59.323Z,89.40
2022-12-20T00:37:08.708Z,89.40
2022-12-20T00:37:18.106Z,89.40
2022-12-20T00:37:27.533Z,89.30
2022-12-20T00:37:37.000Z,89.40
2022-12-20T00:37:46.393Z,89.40
2022-12-20T00:37:55.890Z,89.50
2022-12-20T00:38:14.718Z,89.60
2022-12-20T00:38:24.139Z,89.60
2022-12-20T00:38:33.535Z,89.60
2022-12-20T00:38:42.926Z,89.70
2022-12-20T00:38:52.319Z,89.70
2022-12-20T00:39:01.789Z,89.80
2022-12-20T00:39:11.160Z,89.90
2022-12-20T00:39:20.555Z,89.90
2022-12-20T00:39:29.957Z,90.00
2022-12-20T00:39:39.351Z,90.00
2022-12-20T00:39:48.744Z,90.00
2022-12-20T00:39:58.211Z,90.10
2022-12-20T00:40:07.604Z,90.10
2022-12-20T00:40:17.031Z,90.20
2022-12-20T00:40:26.462Z,90.20
2022-12-20T00:40:35.918Z,90.20
2022-12-20T00:40:54.731Z,90.10
2022-12-20T00:41:04.127Z,90.00
2022-12-20T00:41:13.548Z,90.10
2022-12-20T00:41:22.942Z,90.00
2022-12-20T00:41:32.431Z,90.00
2022-12-20T00:41:41.821Z,89.80
2022-12-20T00:41:51.252Z,89.80
2022-12-20T00:42:00.661Z,89.80
2022-12-20T00:42:10.095Z,89.80
2022-12-20T00:42:19.509Z,89.80
2022-12-20T00:42:28.939Z,89.90
2022-12-20T00:42:38.349Z,90.00
2022-12-20T00:42:47.764Z,90.00
2022-12-20T00:42:57.197Z,90.10
2022-12-20T00:43:06.611Z,90.10
2022-12-20T00:43:16.044Z,90.10
2022-12-20T00:43:34.851Z,90.00
2022-12-20T00:43:44.271Z,90.00
2022-12-20T00:43:53.694Z,90.00
2022-12-20T00:44:03.093Z,89.90
2022-12-20T00:44:12.480Z,89.80
2022-12-20T00:44:21.900Z,89.80
2022-12-20T00:44:31.311Z,89.70
2022-12-20T00:44:40.703Z,89.60
2022-12-20T00:44:50.088Z,89.70
2022-12-20T00:44:59.503Z,89.50
2022-12-20T00:45:08.905Z,89.50
2022-12-20T00:45:18.393Z,89.60
2022-12-20T00:45:27.740Z,89.60
2022-12-20T00:45:37.249Z,89.70
2022-12-20T00:45:46.644Z,89.80
2022-12-20T00:45:56.061Z,89.90
2022-12-20T00:46:14.965Z,89.90
2022-12-20T00:46:24.429Z,90.00
2022-12-20T00:46:33.852Z,89.90
2022-12-20T00:46:43.233Z,89.80
2022-12-20T00:46:52.758Z,89.70
2022-12-20T00:47:02.107Z,89.80
2022-12-20T00:47:11.488Z,89.80
2022-12-20T00:47:20.918Z,89.70
2022-12-20T00:47:30.241Z,89.70
2022-12-20T00:47:39.654Z,89.60
2022-12-20T00:47:49.119Z,89.70
2022-12-20T00:47:58.538Z,89.70
2022-12-20T00:48:08.015Z,89.60
2022-12-20T00:48:17.404Z,89.50
2022-12-20T00:48:26.809Z,89.40
2022-12-20T00:48:36.243Z,89.40
2022-12-20T00:48:55.103Z,89.30
2022-12-20T00:49:04.508Z,89.30
2022-12-20T00:49:13.912Z,89.30
2022-12-20T00:49:23.318Z,89.30
2022-12-20T00:49:32.707Z,89.40
2022-12-20T00:49:42.103Z,89.50
2022-12-20T00:49:51.507Z,89.60
2022-12-20T00:50:00.956Z,89.60
2022-12-20T00:50:10.382Z,89.70
2022-12-20T00:50:19.788Z,89.50
2022-12-20T00:50:29.185Z,89.50
2022-12-20T00:50:38.676Z,89.50
2022-12-20T00:50:48.076Z,89.50
2022-12-20T00:50:57.511Z,89.70
2022-12-20T00:51:06.933Z,89.60
2022-12-20T00:51:16.343Z,89.90
2022-12-20T00:51:25.745Z,89.90
2022-12-20T00:51:44.600Z,90.00
2022-12-20T00:51:53.982Z,89.90
2022-12-20T00:52:03.401Z,89.90
2022-12-20T00:52:12.819Z,90.00
2022-12-20T00:52:22.288Z,89.90
2022-12-20T00:52:31.696Z,89.80
2022-12-20T00:52:41.115Z,89.70
2022-12-20T00:52:50.519Z,89.50
2022-12-20T00:52:59.928Z,89.40
2022-12-20T00:53:09.367Z,89.30
2022-12-20T00:53:24.487Z,89.30
2022-12-20T00:53:28.169Z,89.50
2022-12-20T00:53:37.576Z,89.50
2022-12-20T00:53:47.143Z,89.50
2022-12-20T00:53:56.581Z,89.40
2022-12-20T00:54:05.961Z,89.20
2022-12-20T00:54:24.836Z,89.20
2022-12-20T00:54:34.258Z,89.20
2022-12-20T00:54:43.636Z,89.10
2022-12-20T00:54:53.045Z,89.20
2022-12-20T00:55:02.434Z,89.30
2022-12-20T00:55:11.877Z,89.30
2022-12-20T00:55:21.268Z,89.10
2022-12-20T00:55:30.669Z,89.10
2022-12-20T00:55:40.077Z,89.00
2022-12-20T00:55:49.563Z,89.00
2022-12-20T00:55:58.887Z,89.00
2022-12-20T00:56:08.293Z,88.90
2022-12-20T00:56:17.677Z,88.80
2022-12-20T00:56:27.065Z,88.80
2022-12-20T00:56:36.548Z,88.70
2022-12-20T00:56:45.976Z,88.80
2022-12-20T00:57:04.817Z,88.70
2022-12-20T00:57:14.198Z,88.70
2022-12-20T00:57:23.616Z,88.70
2022-12-20T00:57:33.051Z,88.80
2022-12-20T00:57:42.443Z,88.80
2022-12-20T00:57:51.835Z,88.60
2022-12-20T00:58:01.246Z,88.60
2022-12-20T00:58:10.631Z,88.60
2022-12-20T00:58:20.026Z,88.70
2022-12-20T00:58:29.406Z,88.70
2022-12-20T00:58:38.829Z,88.70
2022-12-20T00:58:48.255Z,88.60
2022-12-20T00:58:57.641Z,88.60
2022-12-20T00:59:07.131Z,88.70
2022-12-20T00:59:16.540Z,88.80
2022-12-20T00:59:25.973Z,88.80
2022-12-20T00:59:44.753Z,88.60
2022-12-20T00:59:54.153Z,88.50
2022-12-20T01:00:03.546Z,88.50
2022-12-20T01:00:12.972Z,88.40
2022-12-20T01:00:22.398Z,88.20
2022-12-20T01:00:31.919Z,88.20
2022-12-20T01:00:41.380Z,88.10
2022-12-20T01:00:56.168Z,87.90
2022-12-20T01:01:00.235Z,87.90
2022-12-20T01:01:09.667Z,87.90
2022-12-20T01:01:19.218Z,87.90
2022-12-20T01:01:28.520Z,87.90
2022-12-20T01:01:38.000Z,87.80
2022-12-20T01:01:47.465Z,87.80
2022-12-20T01:01:57.023Z,87.70
2022-12-20T01:02:06.385Z,87.70
2022-12-20T01:02:25.181Z,87.70
2022-12-20T01:02:34.625Z,87.70
2022-12-20T01:02:43.883Z,87.50
2022-12-20T01:02:53.308Z,87.60
2022-12-20T01:03:02.759Z,87.60
2022-12-20T01:03:12.201Z,87.70
2022-12-20T01:03:21.637Z,87.60
2022-12-20T01:03:30.935Z,87.60
2022-12-20T01:03:40.314Z,87.70
2022-12-20T01:03:49.766Z,87.70
2022-12-20T01:03:59.083Z,87.60
2022-12-20T01:04:08.473Z,87.60
2022-12-20T01:04:17.870Z,87.50
2022-12-20T01:04:27.260Z,87.40
2022-12-20T01:04:36.646Z,87.60
2022-12-20T01:04:46.103Z,87.70
2022-12-20T01:05:04.877Z,87.60
2022-12-20T01:05:14.308Z,87.50
2022-12-20T01:05:23.712Z,87.50
2022-12-20T01:05:33.185Z,87.60
2022-12-20T01:05:42.612Z,87.50
2022-12-20T01:05:52.077Z,87.50
2022-12-20T01:06:01.494Z,87.70
2022-12-20T01:06:10.887Z,87.80
2022-12-20T01:06:20.289Z,87.70
2022-12-20T01:06:29.709Z,87.80
2022-12-20T01:06:39.160Z,87.80
2022-12-20T01:06:48.565Z,87.80
2022-12-20T01:06:57.946Z,87.80
2022-12-20T01:07:07.361Z,87.70
2022-12-20T01:07:16.777Z,87.70
2022-12-20T01:07:26.201Z,87.70
2022-12-20T01:07:45.076Z,87.80
2022-12-20T01:07:57.462Z,87.80
2022-12-20T01:08:06.893Z,87.90
2022-12-20T01:08:16.274Z,87.80
2022-12-20T01:08:25.702Z,87.70
2022-12-20T01:08:35.117Z,87.60
2022-12-20T01:08:44.492Z,87.60
2022-12-20T01:08:53.938Z,87.60
2022-12-20T01:09:03.349Z,87.60
2022-12-20T01:09:12.759Z,87.60
2022-12-20T01:09:22.177Z,87.70
2022-12-20T01:09:31.592Z,87.60
2022-12-20T01:09:40.988Z,87.60
2022-12-20T01:09:50.492Z,87.60
2022-12-20T01:09:59.975Z,87.70
2022-12-20T01:10:09.387Z,87.70
2022-12-20T01:10:18.766Z,87.70
2022-12-20T01:10:28.168Z,87.70
2022-12-20T01:10:37.592Z,87.70
2022-12-20T01:10:46.991Z,87.60
2022-12-20T01:10:56.378Z,87.70
2022-12-20T01:11:05.768Z,87.80
2022-12-20T01:11:24.581Z,88.00
2022-12-20T01:11:34.055Z,88.10
2022-12-20T01:11:43.475Z,88.00
2022-12-20T01:11:52.874Z,88.10
2022-12-20T01:12:02.278Z,88.10
2022-12-20T01:12:11.695Z,88.10
2022-12-20T01:12:21.114Z,88.00
2022-12-20T01:12:30.534Z,88.00
2022-12-20T01:12:39.963Z,87.90
2022-12-20T01:12:49.438Z,88.10
2022-12-20T01:12:58.824Z,88.10
2022-12-20T01:13:08.239Z,88.10
2022-12-20T01:13:17.634Z,88.10
2022-12-20T01:13:27.069Z,88.30
2022-12-20T01:13:36.481Z,88.40
2022-12-20T01:13:45.895Z,88.40
2022-12-20T01:14:04.736Z,88.50
2022-12-20T01:14:14.204Z,88.60
2022-12-20T01:14:23.594Z,88.70
2022-12-20T01:14:33.003Z,88.80
2022-12-20T01:14:42.415Z,88.70
2022-12-20T01:14:51.850Z,88.70
2022-12-20T01:15:01.259Z,88.70
2022-12-20T01:15:10.681Z,88.60
2022-12-20T01:15:20.093Z,88.70
2022-12-20T01:15:29.492Z,88.60
2022-12-20T01:15:38.893Z,88.40
2022-12-20T01:15:48.311Z,88.50
2022-12-20T01:15:57.826Z,88.50
2022-12-20T01:16:07.179Z,88.40
2022-12-20T01:16:16.645Z,88.20
2022-12-20T01:16:26.010Z,88.30
2022-12-20T01:16:44.878Z,88.50
2022-12-20T01:16:54.321Z,88.50
2022-12-20T01:17:03.700Z,88.50
2022-12-20T01:17:13.045Z,88.60
2022-12-20T01:17:22.427Z,88.60
2022-12-20T01:17:31.835Z,88.70
2022-12-20T01:17:41.240Z,88.80
2022-12-20T01:17:50.643Z,88.90
2022-12-20T01:18:00.063Z,88.80
2022-12-20T01:18:09.483Z,88.90
2022-12-20T01:18:18.866Z,89.00
2022-12-20T01:18:28.963Z,89.10
2022-12-20T01:18:38.366Z,89.20
2022-12-20T01:18:47.751Z,89.20
2022-12-20T01:18:57.172Z,89.20
2022-12-20T01:19:06.580Z,89.10
2022-12-20T01:19:15.961Z,89.10
2022-12-20T01:19:34.844Z,89.10
2022-12-20T01:19:44.240Z,89.00
2022-12-20T01:19:53.654Z,89.00
2022-12-20T01:20:03.076Z,89.00
2022-12-20T01:20:12.503Z,88.90
2022-12-20T01:20:21.911Z,88.90
2022-12-20T01:20:31.338Z,88.80
2022-12-20T01:20:40.756Z,88.70
2022-12-20T01:20:50.175Z,88.60
2022-12-20T01:20:59.607Z,88.50
2022-12-20T01:21:09.018Z,88.50
2022-12-20T01:21:18.437Z,88.50
2022-12-20T01:21:27.849Z,88.70
2022-12-20T01:21:37.228Z,88.50
2022-12-20T01:21:46.655Z,88.40
2022-12-20T01:21:56.039Z,88.30
2022-12-20T01:22:14.989Z,88.40
2022-12-20T01:22:24.418Z,88.50
2022-12-20T01:22:33.799Z,88.50
2022-12-20T01:22:47.479Z,88.60
2022-12-20T01:22:52.662Z,88.70
2022-12-20T01:23:02.071Z,88.80
2022-12-20T01:23:11.481Z,88.90
2022-12-20T01:23:20.880Z,88.90
2022-12-20T01:23:30.280Z,88.90
2022-12-20T01:23:39.667Z,88.90
2022-12-20T01:23:49.078Z,88.70
2022-12-20T01:23:58.476Z,88.70
2022-12-20T01:24:07.878Z,88.90
2022-12-20T01:24:17.397Z,88.90
2022-12-20T01:24:26.789Z,88.90
2022-12-20T01:24:36.230Z,88.90
2022-12-20T01:24:55.046Z,88.90
2022-12-20T01:25:04.457Z,88.90
2022-12-20T01:25:13.895Z,88.90
2022-12-20T01:25:23.280Z,88.80
2022-12-20T01:25:32.690Z,88.70
2022-12-20T01:25:42.087Z,88.60
2022-12-20T01:25:51.649Z,88.50
2022-12-20T01:26:01.062Z,88.50
2022-12-20T01:26:10.464Z,88.40
2022-12-20T01:26:19.911Z,88.40
2022-12-20T01:26:29.344Z,88.50
2022-12-20T01:26:38.739Z,88.50
2022-12-20T01:27:20.476Z,88.60
2022-12-20T01:27:29.869Z,88.50
2022-12-20T01:27:39.287Z,88.60
2022-12-20T01:27:48.703Z,88.60
2022-12-20T01:27:58.109Z,88.50
2022-12-20T01:28:07.515Z,88.40
2022-12-20T01:28:16.919Z,88.40
2022-12-20T01:28:26.466Z,88.40
2022-12-20T01:28:35.895Z,88.40
2022-12-20T01:28:45.391Z,86.80
2022-12-20T01:28:54.787Z,88.30
2022-12-20T01:29:04.164Z,88.30
2022-12-20T01:29:13.667Z,88.30
2022-12-20T01:29:23.090Z,88.30
2022-12-20T01:29:32.484Z,88.30
2022-12-20T01:29:41.908Z,88.30
2022-12-20T01:29:51.316Z,88.40
2022-12-20T01:30:00.707Z,88.50
2022-12-20T01:30:10.105Z,88.40
2022-12-20T01:30:19.522Z,88.30
2022-12-20T01:30:28.921Z,88.40
2022-12-20T01:30:38.316Z,88.40
2022-12-20T01:30:47.731Z,88.50
2022-12-20T01:30:57.220Z,88.60
2022-12-20T01:31:06.652Z,88.70
2022-12-20T01:31:16.125Z,88.90
2022-12-20T01:31:25.509Z,89.10
2022-12-20T01:31:35.029Z,89.30
2022-12-20T01:31:44.458Z,89.50
2022-12-20T01:31:53.989Z,89.60
2022-12-20T01:32:03.454Z,89.80
2022-12-20T01:32:12.788Z,90.00
2022-12-20T01:32:22.140Z,90.10
2022-12-20T01:32:31.561Z,90.20
2022-12-20T01:32:41.044Z,90.20
2022-12-20T01:32:50.442Z,90.30
2022-12-20T01:32:59.883Z,90.40
2022-12-20T01:33:09.268Z,90.50
2022-12-20T01:33:18.649Z,90.60
2022-12-20T01:33:28.057Z,90.70
2022-12-20T01:33:37.478Z,90.80
2022-12-20T01:33:46.992Z,90.90
2022-12-20T01:33:56.387Z,91.10
2022-12-20T01:34:05.898Z,91.20
2022-12-20T01:34:24.760Z,91.40
2022-12-20T01:34:34.196Z,91.50
2022-12-20T01:34:43.591Z,91.60
2022-12-20T01:34:53.043Z,91.70
2022-12-20T01:35:02.435Z,91.80
2022-12-20T01:35:11.881Z,91.90
2022-12-20T01:35:21.295Z,92.00
2022-12-20T01:35:30.684Z,92.10
2022-12-20T01:35:40.106Z,92.20
2022-12-20T01:35:49.571Z,92.30
2022-12-20T01:35:58.960Z,92.40
2022-12-20T01:36:08.370Z,92.50
2022-12-20T01:36:17.789Z,92.60
2022-12-20T01:36:27.212Z,92.60
2022-12-20T01:36:36.631Z,92.80
2022-12-20T01:36:46.067Z,92.90
2022-12-20T01:37:04.959Z,93.00
2022-12-20T01:37:14.392Z,93.20
2022-12-20T01:37:23.780Z,93.30
2022-12-20T01:37:33.191Z,93.40
2022-12-20T01:37:42.605Z,93.50
2022-12-20T01:37:51.992Z,93.60
2022-12-20T01:38:01.438Z,93.70
2022-12-20T01:38:10.844Z,93.90
2022-12-20T01:38:20.247Z,93.90
2022-12-20T01:38:29.720Z,94.10
2022-12-20T01:38:39.135Z,94.20
2022-12-20T01:38:48.537Z,94.30
2022-12-20T01:38:57.955Z,94.40
2022-12-20T01:39:07.348Z,94.50
2022-12-20T01:39:16.742Z,94.50
2022-12-20T01:39:26.131Z,94.50
2022-12-20T01:39:44.966Z,94.80
2022-12-20T01:39:54.381Z,94.80
2022-12-20T01:40:03.796Z,94.90
2022-12-20T01:40:13.207Z,95.00
2022-12-20T01:40:22.600Z,95.00
2022-12-20T01:40:31.986Z,95.00
2022-12-20T01:40:41.442Z,94.90
2022-12-20T01:40:50.835Z,94.80
2022-12-20T01:41:00.263Z,94.80
2022-12-20T01:41:09.677Z,94.80
2022-12-20T01:41:19.101Z,94.80
2022-12-20T01:41:28.601Z,94.80
2022-12-20T01:41:38.047Z,94.80
2022-12-20T01:41:47.491Z,94.80
2022-12-20T01:41:56.905Z,94.80
2022-12-20T01:42:06.300Z,94.70
2022-12-20T01:42:25.102Z,94.40
2022-12-20T01:42:34.503Z,94.30
2022-12-20T01:42:43.888Z,94.20
2022-12-20T01:42:53.324Z,94.20
2022-12-20T01:43:02.743Z,94.20
2022-12-20T01:43:12.143Z,94.10
2022-12-20T01:43:21.578Z,94.00
2022-12-20T01:43:30.990Z,93.90
2022-12-20T01:43:40.408Z,93.90
2022-12-20T01:43:49.793Z,93.60
2022-12-20T01:43:59.247Z,93.50
2022-12-20T01:44:08.584Z,93.50
2022-12-20T01:44:18.028Z,93.40
2022-12-20T01:44:27.411Z,93.20
2022-12-20T01:44:36.833Z,93.20
2022-12-20T01:44:46.249Z,93.10
2022-12-20T01:45:05.191Z,92.90
2022-12-20T01:45:14.474Z,92.70
2022-12-20T01:45:23.846Z,92.60
2022-12-20T01:45:33.331Z,92.40
2022-12-20T01:45:42.675Z,92.30
2022-12-20T01:45:52.127Z,92.20
2022-12-20T01:46:01.643Z,92.20
2022-12-20T01:46:10.999Z,92.20
2022-12-20T01:46:20.405Z,92.20
2022-12-20T01:46:29.900Z,92.10
2022-12-20T01:46:39.140Z,92.10
2022-12-20T01:46:48.562Z,92.10
2022-12-20T01:46:58.035Z,92.00
2022-12-20T01:47:07.415Z,92.10
2022-12-20T01:47:16.817Z,92.00
2022-12-20T01:47:26.219Z,91.90
2022-12-20T01:47:45.086Z,91.80
2022-12-20T01:47:54.478Z,91.70
2022-12-20T01:48:03.889Z,91.70
2022-12-20T01:48:13.312Z,91.60
2022-12-20T01:48:22.789Z,91.60
2022-12-20T01:48:32.149Z,91.60
2022-12-20T01:48:41.554Z,91.60
2022-12-20T01:48:50.954Z,91.50
2022-12-20T01:49:00.350Z,91.50
2022-12-20T01:49:09.745Z,91.50
2022-12-20T01:49:19.151Z,91.40
2022-12-20T01:49:28.575Z,91.40
2022-12-20T01:49:37.978Z,91.40
2022-12-20T01:49:47.359Z,91.40
2022-12-20T01:49:56.770Z,91.40
2022-12-20T01:50:06.172Z,91.30
2022-12-20T01:50:24.964Z,91.20
2022-12-20T01:50:34.362Z,91.10
2022-12-20T01:50:43.767Z,91.10
2022-12-20T01:50:53.165Z,91.00
2022-12-20T01:51:02.567Z,90.90
2022-12-20T01:51:11.969Z,91.00
2022-12-20T01:51:21.382Z,90.90
2022-12-20T01:51:30.771Z,90.90
2022-12-20T01:51:40.185Z,90.80
2022-12-20T01:51:49.594Z,90.90
2022-12-20T01:51:59.053Z,90.80
2022-12-20T01:52:08.479Z,90.60
2022-12-20T01:52:17.877Z,90.80
2022-12-20T01:52:27.267Z,90.80
2022-12-20T01:52:36.687Z,90.70
2022-12-20T01:52:46.100Z,90.70
2022-12-20T01:53:04.898Z,90.50
2022-12-20T01:53:14.284Z,90.50
2022-12-20T01:53:23.679Z,90.40
2022-12-20T01:53:33.067Z,90.40
2022-12-20T01:53:42.472Z,90.40
2022-12-20T01:53:51.946Z,90.40
2022-12-20T01:54:01.348Z,90.40
2022-12-20T01:54:10.740Z,90.40
2022-12-20T01:54:20.132Z,90.40
2022-12-20T01:54:29.562Z,90.40
2022-12-20T01:54:38.985Z,90.40
2022-12-20T01:54:48.410Z,90.30
2022-12-20T01:54:57.815Z,90.30
2022-12-20T01:55:07.212Z,90.40
2022-12-20T01:55:16.623Z,90.30
2022-12-20T01:55:26.050Z,90.30
2022-12-20T01:55:44.857Z,90.30
2022-12-20T01:55:54.360Z,90.30
2022-12-20T01:56:03.765Z,90.30
2022-12-20T01:56:13.148Z,90.30
2022-12-20T01:56:22.545Z,90.30
2022-12-20T01:56:31.970Z,90.20
2022-12-20T01:56:41.424Z,90.20
2022-12-20T01:56:50.841Z,90.10
2022-12-20T01:57:00.275Z,90.10
2022-12-20T01:57:09.770Z,90.00
2022-12-20T01:57:19.165Z,90.00
2022-12-20T01:57:28.592Z,90.00
2022-12-20T01:57:37.996Z,90.00
2022-12-20T01:57:47.407Z,89.70
2022-12-20T01:57:56.884Z,89.60
2022-12-20T01:58:06.297Z,89.60
2022-12-20T01:58:25.115Z,89.50
2022-12-20T01:58:34.517Z,89.50
2022-12-20T01:58:43.989Z,89.40
2022-12-20T01:58:53.432Z,89.30
2022-12-20T01:59:02.825Z,89.30
2022-12-20T01:59:12.247Z,89.10
2022-12-20T01:59:21.661Z,89.10
2022-12-20T01:59:31.063Z,88.90
2022-12-20T01:59:40.498Z,88.90
2022-12-20T01:59:49.945Z,89.00
2022-12-20T01:59:59.363Z,89.10
2022-12-20T02:00:08.752Z,89.20
2022-12-20T02:00:18.169Z,89.30
2022-12-20T02:00:27.574Z,89.10
2022-12-20T02:00:36.993Z,89.10
2022-12-20T02:00:46.444Z,89.10
2022-12-20T02:00:55.814Z,89.30
2022-12-20T02:01:14.655Z,89.40
2022-12-20T02:01:24.098Z,89.40
2022-12-20T02:01:33.541Z,89.10
2022-12-20T02:01:42.956Z,89.00
2022-12-20T02:01:52.415Z,88.90
2022-12-20T02:02:02.004Z,88.70
2022-12-20T02:02:11.373Z,88.60
2022-12-20T02:02:20.643Z,88.50
2022-12-20T02:02:30.083Z,88.30
2022-12-20T02:02:39.587Z,88.10
2022-12-20T02:02:48.994Z,88.00
2022-12-20T02:02:58.457Z,88.00
2022-12-20T02:03:07.888Z,88.10
2022-12-20T02:03:17.247Z,88.00
2022-12-20T02:03:26.610Z,88.00
2022-12-20T02:03:36.083Z,88.00
2022-12-20T02:03:54.881Z,87.90
2022-12-20T02:04:04.305Z,87.90
2022-12-20T02:04:13.719Z,87.90
2022-12-20T02:04:23.118Z,87.90
2022-12-20T02:04:32.537Z,87.90
2022-12-20T02:04:41.981Z,87.90
2022-12-20T02:04:51.365Z,87.90
2022-12-20T02:05:00.776Z,87.90
2022-12-20T02:05:10.181Z,88.00
2022-12-20T02:05:19.610Z,87.90
2022-12-20T02:05:28.996Z,87.90
2022-12-20T02:05:38.464Z,88.00
2022-12-20T02:05:47.829Z,88.00
2022-12-20T02:05:57.243Z,88.00
2022-12-20T02:06:06.633Z,88.10
2022-12-20T02:06:16.039Z,88.10
2022-12-20T02:06:34.841Z,88.00
2022-12-20T02:06:44.231Z,87.90
2022-12-20T02:06:53.641Z,87.80
2022-12-20T02:07:03.146Z,87.80
2022-12-20T02:07:12.543Z,87.70
2022-12-20T02:07:21.960Z,87.80
2022-12-20T02:07:31.356Z,87.80
2022-12-20T02:07:40.769Z,87.80
2022-12-20T02:07:50.165Z,87.80
2022-12-20T02:07:59.543Z,87.80
2022-12-20T02:08:08.966Z,87.90
2022-12-20T02:08:18.399Z,88.00
2022-12-20T02:08:27.772Z,88.00
2022-12-20T02:08:37.181Z,88.00
2022-12-20T02:08:46.616Z,88.00